sensor_id;sensor_type;location;lat;lon;timestamp;temperature;humidity
64718;DHT22;62506;46.070;14.492;2023-07-28T00:01:47;24.70;53.50
64718;DHT22;62506;46.070;14.492;2023-07-28T00:04:12;24.70;53.70
64718;DHT22;62506;46.070;14.492;2023-07-28T00:06:37;24.70;53.70
64718;DHT22;62506;46.070;14.492;2023-07-28T00:09:03;24.70;53.80
64718;DHT22;62506;46.070;14.492;2023-07-28T00:11:28;24.70;53.80
64718;DHT22;62506;46.070;14.492;2023-07-28T00:13:54;24.70;53.80
64718;DHT22;62506;46.070;14.492;2023-07-28T00:16:19;24.70;53.70
64718;DHT22;62506;46.070;14.492;2023-07-28T00:18:45;24.70;53.70
64718;DHT22;62506;46.070;14.492;2023-07-28T00:21:10;24.70;53.80
64718;DHT22;62506;46.070;14.492;2023-07-28T00:23:36;24.70;53.70
64718;DHT22;62506;46.070;14.492;2023-07-28T00:26:01;24.70;53.80
64718;DHT22;62506;46.070;14.492;2023-07-28T00:28:27;24.70;53.80
64718;DHT22;62506;46.070;14.492;2023-07-28T00:30:52;24.70;53.90
64718;DHT22;62506;46.070;14.492;2023-07-28T00:33:18;24.60;53.80
64718;DHT22;62506;46.070;14.492;2023-07-28T00:35:44;24.70;53.90
64718;DHT22;62506;46.070;14.492;2023-07-28T00:38:09;24.60;53.90
64718;DHT22;62506;46.070;14.492;2023-07-28T00:40:35;24.60;54.00
64718;DHT22;62506;46.070;14.492;2023-07-28T00:43:01;24.60;54.00
64718;DHT22;62506;46.070;14.492;2023-07-28T00:45:27;24.60;54.00
64718;DHT22;62506;46.070;14.492;2023-07-28T00:47:52;24.60;54.00
64718;DHT22;62506;46.070;14.492;2023-07-28T00:50:18;24.60;54.00
64718;DHT22;62506;46.070;14.492;2023-07-28T00:52:43;24.60;54.00
64718;DHT22;62506;46.070;14.492;2023-07-28T00:55:11;24.60;54.00
64718;DHT22;62506;46.070;14.492;2023-07-28T00:57:37;24.60;54.10
64718;DHT22;62506;46.070;14.492;2023-07-28T01:00:04;24.60;54.20
64718;DHT22;62506;46.070;14.492;2023-07-28T01:02:31;24.60;54.00
64718;DHT22;62506;46.070;14.492;2023-07-28T01:04:56;24.60;54.00
64718;DHT22;62506;46.070;14.492;2023-07-28T01:07:25;24.60;54.10
64718;DHT22;62506;46.070;14.492;2023-07-28T01:12:17;24.60;54.00
64718;DHT22;62506;46.070;14.492;2023-07-28T01:14:43;24.60;54.00
64718;DHT22;62506;46.070;14.492;2023-07-28T01:17:08;24.70;54.20
64718;DHT22;62506;46.070;14.492;2023-07-28T01:19:34;24.60;54.00
64718;DHT22;62506;46.070;14.492;2023-07-28T01:24:51;24.60;54.10
64718;DHT22;62506;46.070;14.492;2023-07-28T01:27:21;24.60;54.20
64718;DHT22;62506;46.070;14.492;2023-07-28T01:29:46;24.60;54.20
64718;DHT22;62506;46.070;14.492;2023-07-28T01:32:13;24.60;54.20
64718;DHT22;62506;46.070;14.492;2023-07-28T01:34:39;24.70;54.20
64718;DHT22;62506;46.070;14.492;2023-07-28T01:37:05;24.70;54.30
64718;DHT22;62506;46.070;14.492;2023-07-28T01:39:30;24.70;54.40
64718;DHT22;62506;46.070;14.492;2023-07-28T01:41:56;24.70;54.20
64718;DHT22;62506;46.070;14.492;2023-07-28T01:44:21;24.70;54.30
64718;DHT22;62506;46.070;14.492;2023-07-28T01:46:47;24.60;54.30
64718;DHT22;62506;46.070;14.492;2023-07-28T01:49:12;24.70;54.40
64718;DHT22;62506;46.070;14.492;2023-07-28T01:51:38;24.60;54.30
64718;DHT22;62506;46.070;14.492;2023-07-28T01:54:03;24.60;54.30
64718;DHT22;62506;46.070;14.492;2023-07-28T01:56:29;24.60;54.40
64718;DHT22;62506;46.070;14.492;2023-07-28T01:58:54;24.60;54.30
64718;DHT22;62506;46.070;14.492;2023-07-28T02:01:20;24.60;54.30
64718;DHT22;62506;46.070;14.492;2023-07-28T02:03:45;24.60;54.40
64718;DHT22;62506;46.070;14.492;2023-07-28T02:06:11;24.60;54.50
64718;DHT22;62506;46.070;14.492;2023-07-28T02:08:36;24.60;54.40
64718;DHT22;62506;46.070;14.492;2023-07-28T02:11:02;24.70;54.50
64718;DHT22;62506;46.070;14.492;2023-07-28T02:13:27;24.60;54.40
64718;DHT22;62506;46.070;14.492;2023-07-28T02:15:53;24.60;54.50
64718;DHT22;62506;46.070;14.492;2023-07-28T02:18:18;24.60;54.50
64718;DHT22;62506;46.070;14.492;2023-07-28T02:20:44;24.60;54.50
64718;DHT22;62506;46.070;14.492;2023-07-28T02:23:09;24.60;54.50
64718;DHT22;62506;46.070;14.492;2023-07-28T02:25:35;24.60;54.70
64718;DHT22;62506;46.070;14.492;2023-07-28T02:28:00;24.60;54.60
64718;DHT22;62506;46.070;14.492;2023-07-28T02:30:26;24.60;54.60
64718;DHT22;62506;46.070;14.492;2023-07-28T02:32:51;24.60;54.70
64718;DHT22;62506;46.070;14.492;2023-07-28T02:35:17;24.60;54.60
64718;DHT22;62506;46.070;14.492;2023-07-28T02:37:42;24.60;54.70
64718;DHT22;62506;46.070;14.492;2023-07-28T02:40:08;24.60;54.70
64718;DHT22;62506;46.070;14.492;2023-07-28T02:42:33;24.60;54.80
64718;DHT22;62506;46.070;14.492;2023-07-28T02:45:01;24.60;54.90
64718;DHT22;62506;46.070;14.492;2023-07-28T02:47:26;24.60;55.10
64718;DHT22;62506;46.070;14.492;2023-07-28T02:49:52;24.60;55.30
64718;DHT22;62506;46.070;14.492;2023-07-28T02:52:17;24.60;55.10
64718;DHT22;62506;46.070;14.492;2023-07-28T02:54:43;24.60;55.30
64718;DHT22;62506;46.070;14.492;2023-07-28T02:57:08;24.60;55.30
64718;DHT22;62506;46.070;14.492;2023-07-28T02:59:34;24.60;55.10
64718;DHT22;62506;46.070;14.492;2023-07-28T03:01:59;24.60;55.00
64718;DHT22;62506;46.070;14.492;2023-07-28T03:04:25;24.60;55.00
64718;DHT22;62506;46.070;14.492;2023-07-28T03:06:50;24.60;55.00
64718;DHT22;62506;46.070;14.492;2023-07-28T03:09:16;24.60;55.20
64718;DHT22;62506;46.070;14.492;2023-07-28T03:11:42;24.60;55.30
64718;DHT22;62506;46.070;14.492;2023-07-28T03:14:08;24.60;55.40
64718;DHT22;62506;46.070;14.492;2023-07-28T03:16:34;24.60;55.60
64718;DHT22;62506;46.070;14.492;2023-07-28T03:18:59;24.60;55.90
64718;DHT22;62506;46.070;14.492;2023-07-28T03:21:24;24.60;55.40
64718;DHT22;62506;46.070;14.492;2023-07-28T03:23:50;24.60;55.30
64718;DHT22;62506;46.070;14.492;2023-07-28T03:26:15;24.60;55.40
64718;DHT22;62506;46.070;14.492;2023-07-28T03:28:41;24.60;55.50
64718;DHT22;62506;46.070;14.492;2023-07-28T03:31:06;24.60;55.70
64718;DHT22;62506;46.070;14.492;2023-07-28T03:33:32;24.60;56.00
64718;DHT22;62506;46.070;14.492;2023-07-28T03:35:58;24.60;55.60
64718;DHT22;62506;46.070;14.492;2023-07-28T03:38:23;24.60;55.40
64718;DHT22;62506;46.070;14.492;2023-07-28T03:40:49;24.60;55.30
64718;DHT22;62506;46.070;14.492;2023-07-28T03:43:15;24.60;55.30
64718;DHT22;62506;46.070;14.492;2023-07-28T03:45:41;24.60;55.30
64718;DHT22;62506;46.070;14.492;2023-07-28T03:48:06;24.60;55.30
64718;DHT22;62506;46.070;14.492;2023-07-28T03:50:32;24.60;55.20
64718;DHT22;62506;46.070;14.492;2023-07-28T03:52:58;24.60;55.30
64718;DHT22;62506;46.070;14.492;2023-07-28T03:55:23;24.60;55.20
64718;DHT22;62506;46.070;14.492;2023-07-28T03:57:49;24.60;55.30
64718;DHT22;62506;46.070;14.492;2023-07-28T04:00:14;24.60;55.20
64718;DHT22;62506;46.070;14.492;2023-07-28T04:02:40;24.60;55.10
64718;DHT22;62506;46.070;14.492;2023-07-28T04:05:05;24.60;55.30
64718;DHT22;62506;46.070;14.492;2023-07-28T04:07:31;24.60;55.10
64718;DHT22;62506;46.070;14.492;2023-07-28T04:09:56;24.60;55.10
64718;DHT22;62506;46.070;14.492;2023-07-28T04:12:22;24.60;55.20
64718;DHT22;62506;46.070;14.492;2023-07-28T04:14:47;24.60;55.30
64718;DHT22;62506;46.070;14.492;2023-07-28T04:17:13;24.60;55.40
64718;DHT22;62506;46.070;14.492;2023-07-28T04:19:38;24.60;55.40
64718;DHT22;62506;46.070;14.492;2023-07-28T04:22:04;24.60;55.60
64718;DHT22;62506;46.070;14.492;2023-07-28T04:24:29;24.60;55.50
64718;DHT22;62506;46.070;14.492;2023-07-28T04:26:55;24.60;55.60
64718;DHT22;62506;46.070;14.492;2023-07-28T04:29:20;24.60;55.50
64718;DHT22;62506;46.070;14.492;2023-07-28T04:31:46;24.60;55.50
64718;DHT22;62506;46.070;14.492;2023-07-28T04:34:11;24.70;55.50
64718;DHT22;62506;46.070;14.492;2023-07-28T04:36:37;24.60;55.40
64718;DHT22;62506;46.070;14.492;2023-07-28T04:39:02;24.60;55.50
64718;DHT22;62506;46.070;14.492;2023-07-28T04:41:28;24.60;55.50
64718;DHT22;62506;46.070;14.492;2023-07-28T04:43:53;24.60;56.00
64718;DHT22;62506;46.070;14.492;2023-07-28T04:46:18;24.60;55.60
64718;DHT22;62506;46.070;14.492;2023-07-28T04:48:45;24.60;55.60
64718;DHT22;62506;46.070;14.492;2023-07-28T04:51:10;24.60;55.50
64718;DHT22;62506;46.070;14.492;2023-07-28T04:53:36;24.60;55.50
64718;DHT22;62506;46.070;14.492;2023-07-28T04:56:01;24.70;55.50
64718;DHT22;62506;46.070;14.492;2023-07-28T04:58:28;24.60;55.40
64718;DHT22;62506;46.070;14.492;2023-07-28T05:00:54;24.60;55.40
64718;DHT22;62506;46.070;14.492;2023-07-28T05:03:19;24.60;55.60
64718;DHT22;62506;46.070;14.492;2023-07-28T05:05:45;24.60;52.10
64718;DHT22;62506;46.070;14.492;2023-07-28T05:08:11;24.20;50.80
64718;DHT22;62506;46.070;14.492;2023-07-28T05:10:36;23.90;50.90
64718;DHT22;62506;46.070;14.492;2023-07-28T05:13:02;23.70;50.90
64718;DHT22;62506;46.070;14.492;2023-07-28T05:15:30;23.50;51.10
64718;DHT22;62506;46.070;14.492;2023-07-28T05:17:56;23.40;51.30
64718;DHT22;62506;46.070;14.492;2023-07-28T05:20:21;23.30;51.80
64718;DHT22;62506;46.070;14.492;2023-07-28T05:22:47;23.20;52.00
64718;DHT22;62506;46.070;14.492;2023-07-28T05:25:12;23.20;52.40
64718;DHT22;62506;46.070;14.492;2023-07-28T05:27:38;23.10;52.80
64718;DHT22;62506;46.070;14.492;2023-07-28T05:30:04;23.00;53.20
64718;DHT22;62506;46.070;14.492;2023-07-28T05:32:29;23.00;53.30
64718;DHT22;62506;46.070;14.492;2023-07-28T05:34:55;22.90;53.20
64718;DHT22;62506;46.070;14.492;2023-07-28T05:37:20;22.90;53.40
64718;DHT22;62506;46.070;14.492;2023-07-28T05:39:46;22.90;53.60
64718;DHT22;62506;46.070;14.492;2023-07-28T05:42:12;22.90;53.60
64718;DHT22;62506;46.070;14.492;2023-07-28T05:44:38;23.00;53.50
64718;DHT22;62506;46.070;14.492;2023-07-28T05:47:03;23.00;54.00
64718;DHT22;62506;46.070;14.492;2023-07-28T05:49:30;23.00;53.80
64718;DHT22;62506;46.070;14.492;2023-07-28T05:51:55;22.90;54.10
64718;DHT22;62506;46.070;14.492;2023-07-28T05:54:21;22.80;53.00
64718;DHT22;62506;46.070;14.492;2023-07-28T05:56:47;22.80;54.20
64718;DHT22;62506;46.070;14.492;2023-07-28T05:59:12;23.00;54.40
64718;DHT22;62506;46.070;14.492;2023-07-28T06:01:38;23.20;54.50
64718;DHT22;62506;46.070;14.492;2023-07-28T06:04:03;23.30;54.70
64718;DHT22;62506;46.070;14.492;2023-07-28T06:06:29;23.40;54.50
64718;DHT22;62506;46.070;14.492;2023-07-28T06:08:54;23.50;54.50
64718;DHT22;62506;46.070;14.492;2023-07-28T06:11:20;23.60;54.20
64718;DHT22;62506;46.070;14.492;2023-07-28T06:13:46;23.60;54.00
64718;DHT22;62506;46.070;14.492;2023-07-28T06:16:12;23.70;54.10
64718;DHT22;62506;46.070;14.492;2023-07-28T06:18:38;23.70;54.00
64718;DHT22;62506;46.070;14.492;2023-07-28T06:21:03;23.70;54.00
64718;DHT22;62506;46.070;14.492;2023-07-28T06:23:28;23.80;54.00
64718;DHT22;62506;46.070;14.492;2023-07-28T06:25:54;23.80;54.00
64718;DHT22;62506;46.070;14.492;2023-07-28T06:28:20;23.80;54.00
64718;DHT22;62506;46.070;14.492;2023-07-28T06:30:46;23.90;54.10
64718;DHT22;62506;46.070;14.492;2023-07-28T06:33:12;23.90;54.20
64718;DHT22;62506;46.070;14.492;2023-07-28T06:35:37;23.90;54.20
64718;DHT22;62506;46.070;14.492;2023-07-28T06:38:04;23.90;54.30
64718;DHT22;62506;46.070;14.492;2023-07-28T06:40:29;24.00;54.40
64718;DHT22;62506;46.070;14.492;2023-07-28T06:42:55;24.00;54.40
64718;DHT22;62506;46.070;14.492;2023-07-28T06:45:21;24.00;54.30
64718;DHT22;62506;46.070;14.492;2023-07-28T06:47:46;23.90;53.30
64718;DHT22;62506;46.070;14.492;2023-07-28T06:50:12;23.80;53.20
64718;DHT22;62506;46.070;14.492;2023-07-28T06:52:38;23.60;53.50
64718;DHT22;62506;46.070;14.492;2023-07-28T06:55:03;23.50;53.20
64718;DHT22;62506;46.070;14.492;2023-07-28T06:57:29;23.50;53.10
64718;DHT22;62506;46.070;14.492;2023-07-28T06:59:55;23.50;53.70
64718;DHT22;62506;46.070;14.492;2023-07-28T07:02:21;23.50;54.00
64718;DHT22;62506;46.070;14.492;2023-07-28T07:04:47;23.50;54.60
64718;DHT22;62506;46.070;14.492;2023-07-28T07:07:12;23.40;54.60
64718;DHT22;62506;46.070;14.492;2023-07-28T07:09:38;23.40;54.30
64718;DHT22;62506;46.070;14.492;2023-07-28T07:12:03;23.40;54.50
64718;DHT22;62506;46.070;14.492;2023-07-28T07:14:29;23.40;54.60
64718;DHT22;62506;46.070;14.492;2023-07-28T07:16:54;23.50;54.60
64718;DHT22;62506;46.070;14.492;2023-07-28T07:19:20;23.50;54.60
64718;DHT22;62506;46.070;14.492;2023-07-28T07:21:45;23.70;54.50
64718;DHT22;62506;46.070;14.492;2023-07-28T07:24:13;23.70;54.50
64718;DHT22;62506;46.070;14.492;2023-07-28T07:26:41;23.90;54.40
64718;DHT22;62506;46.070;14.492;2023-07-28T07:29:07;23.90;54.30
64718;DHT22;62506;46.070;14.492;2023-07-28T07:31:33;23.90;54.50
64718;DHT22;62506;46.070;14.492;2023-07-28T07:33:59;23.80;54.60
64718;DHT22;62506;46.070;14.492;2023-07-28T07:36:25;23.90;54.80
64718;DHT22;62506;46.070;14.492;2023-07-28T07:38:50;23.90;54.80
64718;DHT22;62506;46.070;14.492;2023-07-28T07:41:16;23.90;54.80
64718;DHT22;62506;46.070;14.492;2023-07-28T07:43:45;23.90;54.80
64718;DHT22;62506;46.070;14.492;2023-07-28T07:46:10;24.00;54.90
64718;DHT22;62506;46.070;14.492;2023-07-28T07:48:36;24.00;54.90
64718;DHT22;62506;46.070;14.492;2023-07-28T07:51:01;24.00;54.90
64718;DHT22;62506;46.070;14.492;2023-07-28T07:53:27;24.00;54.90
64718;DHT22;62506;46.070;14.492;2023-07-28T07:55:52;24.10;55.00
64718;DHT22;62506;46.070;14.492;2023-07-28T07:58:18;24.00;54.90
64718;DHT22;62506;46.070;14.492;2023-07-28T08:00:43;24.00;54.90
64718;DHT22;62506;46.070;14.492;2023-07-28T08:03:09;24.10;55.00
64718;DHT22;62506;46.070;14.492;2023-07-28T08:05:35;24.10;55.10
64718;DHT22;62506;46.070;14.492;2023-07-28T08:08:01;24.10;55.10
64718;DHT22;62506;46.070;14.492;2023-07-28T08:10:26;24.10;55.10
64718;DHT22;62506;46.070;14.492;2023-07-28T08:12:52;24.10;55.10
64718;DHT22;62506;46.070;14.492;2023-07-28T08:15:18;24.20;55.10
64718;DHT22;62506;46.070;14.492;2023-07-28T08:17:43;24.20;55.20
64718;DHT22;62506;46.070;14.492;2023-07-28T08:20:09;24.20;55.20
64718;DHT22;62506;46.070;14.492;2023-07-28T08:22:34;24.20;55.10
64718;DHT22;62506;46.070;14.492;2023-07-28T08:25:00;24.20;55.20
64718;DHT22;62506;46.070;14.492;2023-07-28T08:27:25;24.20;55.30
64718;DHT22;62506;46.070;14.492;2023-07-28T08:29:51;24.20;55.40
64718;DHT22;62506;46.070;14.492;2023-07-28T08:32:16;24.30;55.20
64718;DHT22;62506;46.070;14.492;2023-07-28T08:34:42;24.30;55.20
64718;DHT22;62506;46.070;14.492;2023-07-28T08:37:08;24.30;55.20
64718;DHT22;62506;46.070;14.492;2023-07-28T08:39:33;24.30;55.30
64718;DHT22;62506;46.070;14.492;2023-07-28T08:42:02;24.30;55.50
64718;DHT22;62506;46.070;14.492;2023-07-28T08:44:32;24.40;55.70
64718;DHT22;62506;46.070;14.492;2023-07-28T08:47:02;24.40;55.90
64718;DHT22;62506;46.070;14.492;2023-07-28T08:49:28;24.40;56.50
64718;DHT22;62506;46.070;14.492;2023-07-28T08:51:57;24.40;56.30
64718;DHT22;62506;46.070;14.492;2023-07-28T08:54:23;24.40;56.80
64718;DHT22;62506;46.070;14.492;2023-07-28T08:56:48;24.40;56.40
64718;DHT22;62506;46.070;14.492;2023-07-28T08:59:20;24.50;55.80
64718;DHT22;62506;46.070;14.492;2023-07-28T09:01:46;24.50;56.30
64718;DHT22;62506;46.070;14.492;2023-07-28T09:04:11;24.50;55.90
64718;DHT22;62506;46.070;14.492;2023-07-28T09:06:37;24.60;56.10
64718;DHT22;62506;46.070;14.492;2023-07-28T09:09:06;24.60;55.60
64718;DHT22;62506;46.070;14.492;2023-07-28T09:11:32;24.60;56.00
64718;DHT22;62506;46.070;14.492;2023-07-28T09:14:00;24.70;55.50
64718;DHT22;62506;46.070;14.492;2023-07-28T09:16:25;24.70;55.70
64718;DHT22;62506;46.070;14.492;2023-07-28T09:18:55;24.70;55.90
64718;DHT22;62506;46.070;14.492;2023-07-28T09:21:28;24.70;56.10
64718;DHT22;62506;46.070;14.492;2023-07-28T09:23:55;24.70;55.70
64718;DHT22;62506;46.070;14.492;2023-07-28T09:26:20;24.80;55.90
64718;DHT22;62506;46.070;14.492;2023-07-28T09:28:46;24.80;55.80
64718;DHT22;62506;46.070;14.492;2023-07-28T09:31:11;24.80;55.90
64718;DHT22;62506;46.070;14.492;2023-07-28T09:33:37;24.80;56.00
64718;DHT22;62506;46.070;14.492;2023-07-28T09:36:08;24.80;55.90
64718;DHT22;62506;46.070;14.492;2023-07-28T09:38:38;24.80;55.80
64718;DHT22;62506;46.070;14.492;2023-07-28T09:41:06;24.80;56.10
64718;DHT22;62506;46.070;14.492;2023-07-28T09:43:37;24.80;56.10
64718;DHT22;62506;46.070;14.492;2023-07-28T09:46:04;24.80;55.70
64718;DHT22;62506;46.070;14.492;2023-07-28T09:48:31;24.90;55.70
64718;DHT22;62506;46.070;14.492;2023-07-28T09:50:57;24.90;56.10
64718;DHT22;62506;46.070;14.492;2023-07-28T09:53:23;24.80;56.10
64718;DHT22;62506;46.070;14.492;2023-07-28T09:55:49;24.80;56.30
64718;DHT22;62506;46.070;14.492;2023-07-28T09:58:16;24.80;56.60
64718;DHT22;62506;46.070;14.492;2023-07-28T10:00:43;24.80;56.80
64718;DHT22;62506;46.070;14.492;2023-07-28T10:03:08;24.80;56.70
64718;DHT22;62506;46.070;14.492;2023-07-28T10:05:34;24.80;56.60
64718;DHT22;62506;46.070;14.492;2023-07-28T10:08:00;24.80;56.50
64718;DHT22;62506;46.070;14.492;2023-07-28T10:10:26;24.80;56.40
64718;DHT22;62506;46.070;14.492;2023-07-28T10:12:54;24.80;56.40
64718;DHT22;62506;46.070;14.492;2023-07-28T10:15:20;24.80;56.50
64718;DHT22;62506;46.070;14.492;2023-07-28T10:17:47;24.80;56.50
64718;DHT22;62506;46.070;14.492;2023-07-28T10:20:29;24.90;56.60
64718;DHT22;62506;46.070;14.492;2023-07-28T10:25:31;24.80;56.70
64718;DHT22;62506;46.070;14.492;2023-07-28T10:27:57;24.80;56.80
64718;DHT22;62506;46.070;14.492;2023-07-28T10:30:23;24.80;56.70
64718;DHT22;62506;46.070;14.492;2023-07-28T10:32:49;24.80;56.80
64718;DHT22;62506;46.070;14.492;2023-07-28T10:37:44;24.80;56.90
64718;DHT22;62506;46.070;14.492;2023-07-28T10:42:48;24.80;56.80
64718;DHT22;62506;46.070;14.492;2023-07-28T10:45:13;24.80;57.50
64718;DHT22;62506;46.070;14.492;2023-07-28T10:47:39;24.80;56.70
64718;DHT22;62506;46.070;14.492;2023-07-28T10:50:08;24.90;56.90
64718;DHT22;62506;46.070;14.492;2023-07-28T10:52:34;24.90;56.60
64718;DHT22;62506;46.070;14.492;2023-07-28T10:55:00;24.90;56.70
64718;DHT22;62506;46.070;14.492;2023-07-28T10:57:25;24.90;56.60
64718;DHT22;62506;46.070;14.492;2023-07-28T10:59:54;24.90;56.60
64718;DHT22;62506;46.070;14.492;2023-07-28T11:02:20;24.90;56.60
64718;DHT22;62506;46.070;14.492;2023-07-28T11:04:46;24.90;57.50
64718;DHT22;62506;46.070;14.492;2023-07-28T11:07:12;25.00;56.70
64718;DHT22;62506;46.070;14.492;2023-07-28T11:09:38;25.00;56.40
64718;DHT22;62506;46.070;14.492;2023-07-28T11:12:04;25.00;56.80
64718;DHT22;62506;46.070;14.492;2023-07-28T11:14:34;25.00;56.70
64718;DHT22;62506;46.070;14.492;2023-07-28T11:17:01;25.00;56.60
64718;DHT22;62506;46.070;14.492;2023-07-28T11:19:26;25.00;56.70
64718;DHT22;62506;46.070;14.492;2023-07-28T11:21:52;25.00;56.70
64718;DHT22;62506;46.070;14.492;2023-07-28T11:24:19;25.00;56.80
64718;DHT22;62506;46.070;14.492;2023-07-28T11:26:45;25.00;56.90
64718;DHT22;62506;46.070;14.492;2023-07-28T11:29:13;25.00;56.90
64718;DHT22;62506;46.070;14.492;2023-07-28T11:31:40;25.00;56.90
64718;DHT22;62506;46.070;14.492;2023-07-28T11:34:16;25.00;56.90
64718;DHT22;62506;46.070;14.492;2023-07-28T11:36:41;25.00;56.90
64718;DHT22;62506;46.070;14.492;2023-07-28T11:39:07;25.00;57.10
64718;DHT22;62506;46.070;14.492;2023-07-28T11:41:33;25.00;57.10
64718;DHT22;62506;46.070;14.492;2023-07-28T11:43:59;25.00;57.10
64718;DHT22;62506;46.070;14.492;2023-07-28T11:46:33;25.00;57.80
64718;DHT22;62506;46.070;14.492;2023-07-28T11:49:33;25.00;57.00
64718;DHT22;62506;46.070;14.492;2023-07-28T11:51:53;25.00;57.10
64718;DHT22;62506;46.070;14.492;2023-07-28T11:54:20;25.00;57.10
64718;DHT22;62506;46.070;14.492;2023-07-28T11:56:47;25.10;56.90
64718;DHT22;62506;46.070;14.492;2023-07-28T11:59:17;25.00;56.90
64718;DHT22;62506;46.070;14.492;2023-07-28T12:01:53;25.00;56.90
64718;DHT22;62506;46.070;14.492;2023-07-28T12:04:20;25.10;57.00
64718;DHT22;62506;46.070;14.492;2023-07-28T12:12:24;25.10;57.10
64718;DHT22;62506;46.070;14.492;2023-07-28T12:14:51;25.10;56.90
64718;DHT22;62506;46.070;14.492;2023-07-28T12:17:17;25.10;57.20
64718;DHT22;62506;46.070;14.492;2023-07-28T12:22:21;25.20;57.10
64718;DHT22;62506;46.070;14.492;2023-07-28T12:24:46;25.10;57.00
64718;DHT22;62506;46.070;14.492;2023-07-28T12:27:12;25.10;57.10
64718;DHT22;62506;46.070;14.492;2023-07-28T12:29:38;25.10;57.10
64718;DHT22;62506;46.070;14.492;2023-07-28T12:32:04;25.10;57.30
64718;DHT22;62506;46.070;14.492;2023-07-28T12:34:30;25.10;57.10
64718;DHT22;62506;46.070;14.492;2023-07-28T12:36:55;25.10;57.20
64718;DHT22;62506;46.070;14.492;2023-07-28T12:39:21;25.10;57.30
64718;DHT22;62506;46.070;14.492;2023-07-28T12:41:47;25.20;57.20
64718;DHT22;62506;46.070;14.492;2023-07-28T12:44:12;25.30;57.30
64718;DHT22;62506;46.070;14.492;2023-07-28T12:46:38;25.20;57.30
64718;DHT22;62506;46.070;14.492;2023-07-28T12:49:04;25.20;57.30
64718;DHT22;62506;46.070;14.492;2023-07-28T12:51:32;25.20;57.20
64718;DHT22;62506;46.070;14.492;2023-07-28T12:53:57;25.20;57.20
64718;DHT22;62506;46.070;14.492;2023-07-28T12:56:23;25.20;57.10
64718;DHT22;62506;46.070;14.492;2023-07-28T12:58:49;25.20;57.10
64718;DHT22;62506;46.070;14.492;2023-07-28T13:01:14;25.20;57.30
64718;DHT22;62506;46.070;14.492;2023-07-28T13:03:40;25.20;57.30
64718;DHT22;62506;46.070;14.492;2023-07-28T13:06:05;25.20;57.30
64718;DHT22;62506;46.070;14.492;2023-07-28T13:08:31;25.20;57.10
64718;DHT22;62506;46.070;14.492;2023-07-28T13:10:56;25.30;57.20
64718;DHT22;62506;46.070;14.492;2023-07-28T13:13:22;25.30;57.10
64718;DHT22;62506;46.070;14.492;2023-07-28T13:15:48;25.30;57.10
64718;DHT22;62506;46.070;14.492;2023-07-28T13:18:13;25.30;56.90
64718;DHT22;62506;46.070;14.492;2023-07-28T13:20:39;25.30;57.00
64718;DHT22;62506;46.070;14.492;2023-07-28T13:23:04;25.30;57.10
64718;DHT22;62506;46.070;14.492;2023-07-28T13:25:30;25.30;57.00
64718;DHT22;62506;46.070;14.492;2023-07-28T13:27:55;25.40;57.00
64718;DHT22;62506;46.070;14.492;2023-07-28T13:30:21;25.30;57.50
64718;DHT22;62506;46.070;14.492;2023-07-28T13:32:46;25.30;57.80
64718;DHT22;62506;46.070;14.492;2023-07-28T13:35:12;25.30;57.80
64718;DHT22;62506;46.070;14.492;2023-07-28T13:37:37;25.30;58.00
64718;DHT22;62506;46.070;14.492;2023-07-28T13:40:04;25.30;58.20
64718;DHT22;62506;46.070;14.492;2023-07-28T13:42:30;25.30;58.20
64718;DHT22;62506;46.070;14.492;2023-07-28T13:44:55;25.40;58.20
64718;DHT22;62506;46.070;14.492;2023-07-28T13:47:21;25.40;58.40
64718;DHT22;62506;46.070;14.492;2023-07-28T13:49:46;25.40;58.20
64718;DHT22;62506;46.070;14.492;2023-07-28T13:52:12;25.40;58.20
64718;DHT22;62506;46.070;14.492;2023-07-28T13:54:37;25.40;58.30
64718;DHT22;62506;46.070;14.492;2023-07-28T13:57:03;25.40;58.40
64718;DHT22;62506;46.070;14.492;2023-07-28T13:59:29;25.40;58.50
64718;DHT22;62506;46.070;14.492;2023-07-28T14:01:54;25.40;58.60
64718;DHT22;62506;46.070;14.492;2023-07-28T14:04:20;25.40;58.50
64718;DHT22;62506;46.070;14.492;2023-07-28T14:06:46;25.40;58.20
64718;DHT22;62506;46.070;14.492;2023-07-28T14:09:11;25.40;58.30
64718;DHT22;62506;46.070;14.492;2023-07-28T14:11:38;25.40;58.50
64718;DHT22;62506;46.070;14.492;2023-07-28T14:14:03;25.40;58.50
64718;DHT22;62506;46.070;14.492;2023-07-28T14:16:29;25.40;58.60
64718;DHT22;62506;46.070;14.492;2023-07-28T14:18:55;25.40;58.60
64718;DHT22;62506;46.070;14.492;2023-07-28T14:21:20;25.40;58.50
64718;DHT22;62506;46.070;14.492;2023-07-28T14:23:46;25.40;58.60
64718;DHT22;62506;46.070;14.492;2023-07-28T14:26:11;25.40;58.60
64718;DHT22;62506;46.070;14.492;2023-07-28T14:28:37;25.40;58.70
64718;DHT22;62506;46.070;14.492;2023-07-28T14:31:02;25.40;58.40
64718;DHT22;62506;46.070;14.492;2023-07-28T14:33:28;25.50;58.20
64718;DHT22;62506;46.070;14.492;2023-07-28T14:35:53;25.40;58.20
64718;DHT22;62506;46.070;14.492;2023-07-28T14:38:19;25.40;57.90
64718;DHT22;62506;46.070;14.492;2023-07-28T14:40:44;25.50;57.70
64718;DHT22;62506;46.070;14.492;2023-07-28T14:43:14;25.50;57.20
64718;DHT22;62506;46.070;14.492;2023-07-28T14:45:40;25.50;57.10
64718;DHT22;62506;46.070;14.492;2023-07-28T14:48:05;25.50;57.20
64718;DHT22;62506;46.070;14.492;2023-07-28T14:50:31;25.50;57.10
64718;DHT22;62506;46.070;14.492;2023-07-28T14:52:59;25.50;56.80
64718;DHT22;62506;46.070;14.492;2023-07-28T14:55:28;25.50;56.80
64718;DHT22;62506;46.070;14.492;2023-07-28T14:57:53;25.50;57.10
64718;DHT22;62506;46.070;14.492;2023-07-28T15:00:19;25.50;56.10
64718;DHT22;62506;46.070;14.492;2023-07-28T15:02:44;25.50;56.30
64718;DHT22;62506;46.070;14.492;2023-07-28T15:05:10;25.50;57.00
64718;DHT22;62506;46.070;14.492;2023-07-28T15:07:35;25.50;56.70
64718;DHT22;62506;46.070;14.492;2023-07-28T15:10:02;25.50;56.50
64718;DHT22;62506;46.070;14.492;2023-07-28T15:12:27;25.50;56.50
64718;DHT22;62506;46.070;14.492;2023-07-28T15:14:53;25.50;56.60
64718;DHT22;62506;46.070;14.492;2023-07-28T15:17:18;25.50;56.70
64718;DHT22;62506;46.070;14.492;2023-07-28T15:19:44;25.50;56.40
64718;DHT22;62506;46.070;14.492;2023-07-28T15:22:10;25.60;56.80
64718;DHT22;62506;46.070;14.492;2023-07-28T15:24:35;25.60;56.50
64718;DHT22;62506;46.070;14.492;2023-07-28T15:27:01;25.60;56.90
64718;DHT22;62506;46.070;14.492;2023-07-28T15:29:26;25.60;57.00